Time;durP1;ratioP1;P1;durP2;ratioP2;P2;SDS_P1;SDS_P2;PMS_P1;PMS_P2;Temp;Humidity;BMP_temperature;BMP_pressure;BME280_temperature;BME280_humidity;BME280_pressure;Samples;Min_cycle;Max_cycle;Signal;HPM_P1;HPM_P2
2022/06/06 00:01:41;;;;;;;8.07;7.30;;;17.30;73.30;;;;;;4801546;29;20051;-82
2022/06/06 00:04:07;;;;;;;7.95;7.18;;;17.30;73.40;;;;;;4796570;29;20054;-81
2022/06/06 00:06:33;;;;;;;8.27;7.18;;;17.20;73.40;;;;;;4790491;29;20069;-83
2022/06/06 00:08:59;;;;;;;7.53;6.53;;;17.20;73.60;;;;;;4789124;30;20500;-82
2022/06/06 00:11:25;;;;;;;6.13;5.50;;;17.10;73.60;;;;;;4789383;29;20126;-82
2022/06/06 00:13:51;;;;;;;6.68;5.78;;;17.10;73.50;;;;;;4795465;29;20083;-82
2022/06/06 00:16:17;;;;;;;5.60;5.10;;;17.10;73.40;;;;;;4795886;29;20510;-82
2022/06/06 00:18:43;;;;;;;6.68;5.57;;;17.10;73.40;;;;;;4788415;30;20092;-81
2022/06/06 00:21:11;;;;;;;5.10;4.60;;;17.10;73.20;;;;;;4772691;30;20506;-81
2022/06/06 00:23:38;;;;;;;5.57;4.65;;;17.10;73.10;;;;;;4790789;29;20055;-82
2022/06/06 00:26:07;;;;;;;5.50;4.82;;;17.10;73.00;;;;;;4793218;29;20058;-82
2022/06/06 00:28:34;;;;;;;5.32;4.22;;;17.10;72.80;;;;;;4789986;29;20476;-81
2022/06/06 00:34:48;;;;;;;5.50;4.72;;;17.10;72.60;;;;;;4806895;29;20057;-81
2022/06/06 00:36:35;;;;;;;5.47;4.80;;;17.20;72.50;;;;;;4754724;30;20048;-81
2022/06/06 00:39:03;;;;;;;5.40;4.50;;;17.20;72.60;;;;;;4752591;30;20489;-82
2022/06/06 00:41:28;;;;;;;7.22;5.40;;;17.20;72.50;;;;;;4746766;30;20053;-81
2022/06/06 00:44:20;;;;;;;5.72;4.40;;;17.20;72.40;;;;;;4751153;30;20115;-81
2022/06/06 00:47:06;;;;;;;6.28;4.75;;;17.30;72.20;;;;;;4750004;30;20072;-80
2022/06/06 00:49:38;;;;;;;4.30;3.78;;;17.20;72.20;;;;;;4732649;30;20493;-83
2022/06/06 00:52:12;;;;;;;4.38;3.63;;;17.20;72.00;;;;;;4748585;30;20062;-84
2022/06/06 00:54:38;;;;;;;4.90;4.40;;;17.20;71.80;;;;;;4718896;30;20134;-84
2022/06/06 00:57:13;;;;;;;7.47;5.60;;;17.20;71.80;;;;;;4747652;30;20539;-82
2022/06/06 00:59:40;;;;;;;5.88;4.07;;;17.20;72.30;;;;;;4754265;30;20056;-82
2022/06/06 01:02:09;;;;;;;5.78;4.90;;;17.20;71.90;;;;;;4768590;30;20458;-82
2022/06/06 01:04:35;;;;;;;4.90;4.22;;;17.30;72.00;;;;;;4751737;30;20108;-84
2022/06/06 01:07:03;;;;;;;5.07;4.22;;;17.30;71.90;;;;;;4750210;30;20081;-81
2022/06/06 01:09:29;;;;;;;5.10;4.60;;;17.30;71.80;;;;;;4750521;30;20058;-83
2022/06/06 01:12:00;;;;;;;5.47;4.70;;;17.30;71.70;;;;;;4750860;30;20052;-82
2022/06/06 01:14:31;;;;;;;4.30;3.90;;;17.30;71.60;;;;;;4797592;29;20073;-82
2022/06/06 01:17:02;;;;;;;4.88;3.78;;;17.30;71.50;;;;;;4796950;29;20121;-83
2022/06/06 01:19:52;;;;;;;4.97;3.70;;;17.30;71.30;;;;;;4797253;29;20047;-84
2022/06/06 01:22:36;;;;;;;5.85;4.80;;;17.30;71.10;;;;;;4802750;29;20059;-84
2022/06/06 01:25:12;;;;;;;;;;;17.30;71.10;;;;;;4802282;29;20078;-84
2022/06/06 01:27:56;;;;;;;6.32;4.65;;;17.20;70.90;;;;;;4803511;29;19944;-81
2022/06/06 01:30:27;;;;;;;4.60;3.90;;;17.20;71.30;;;;;;4802769;29;20086;-84
2022/06/06 01:32:59;;;;;;;5.25;4.75;;;17.20;71.30;;;;;;4805964;29;20158;-83
2022/06/06 01:35:41;;;;;;;7.65;5.68;;;17.10;71.30;;;;;;4805977;29;20039;-83
2022/06/06 01:38:08;;;;;;;6.90;5.38;;;17.30;71.50;;;;;;4803331;29;20043;-84
2022/06/06 01:40:48;;;;;;;5.47;4.88;;;17.10;71.50;;;;;;4800927;29;20495;-83
2022/06/06 01:43:17;;;;;;;5.35;4.70;;;17.10;71.40;;;;;;4800425;29;20039;-83
2022/06/06 01:45:54;;;;;;;7.50;4.80;;;17.10;71.50;;;;;;4789991;29;20065;-84
2022/06/06 01:48:23;;;;;;;5.25;4.03;;;17.10;71.30;;;;;;4801363;29;20496;-85
2022/06/06 01:50:50;;;;;;;5.45;4.43;;;17.10;71.80;;;;;;4792778;29;20559;-83
2022/06/06 01:53:18;;;;;;;5.28;4.65;;;17.10;71.30;;;;;;4784857;29;20039;-84
2022/06/06 01:55:46;;;;;;;6.25;5.35;;;17.10;71.30;;;;;;4781397;29;20057;-84
2022/06/06 01:58:27;;;;;;;6.22;4.90;;;17.10;71.40;;;;;;4805377;29;20096;-84
2022/06/06 02:00:53;;;;;;;6.82;4.88;;;17.20;71.70;;;;;;4802322;29;20398;-84
2022/06/06 02:03:20;;;;;;;7.15;4.70;;;17.10;71.30;;;;;;4806311;29;20039;-81
2022/06/06 02:05:46;;;;;;;5.38;4.78;;;17.10;71.30;;;;;;4793068;29;20061;-83
2022/06/06 02:08:14;;;;;;;6.07;5.30;;;17.10;71.30;;;;;;4802387;29;20133;-82
2022/06/06 02:10:40;;;;;;;4.57;3.70;;;17.10;71.30;;;;;;4797685;29;20453;-83
2022/06/06 02:13:07;;;;;;;8.73;5.35;;;17.10;71.20;;;;;;4799188;29;20051;-82
2022/06/06 02:15:33;;;;;;;8.07;5.63;;;17.10;71.30;;;;;;4802582;29;20478;-83
2022/06/06 02:17:59;;;;;;;4.90;4.05;;;17.10;71.90;;;;;;4801893;29;20058;-82
2022/06/06 02:20:28;;;;;;;6.32;4.15;;;17.10;71.40;;;;;;4806593;29;20050;-82
2022/06/06 02:22:54;;;;;;;4.75;3.85;;;17.10;71.60;;;;;;4797171;29;20043;-84
2022/06/06 02:25:20;;;;;;;5.35;4.13;;;17.10;71.10;;;;;;4779406;30;20051;-86
2022/06/06 02:27:46;;;;;;;4.60;4.10;;;17.10;71.20;;;;;;4791027;30;20089;-84
2022/06/06 02:30:17;;;;;;;6.35;4.57;;;17.10;71.50;;;;;;4803690;29;20054;-84
2022/06/06 02:32:43;;;;;;;6.78;4.80;;;17.10;71.60;;;;;;4789777;29;20077;-84
2022/06/06 02:35:13;;;;;;;5.75;4.10;;;17.10;71.70;;;;;;4803064;29;20065;-84
2022/06/06 02:37:39;;;;;;;5.90;5.18;;;17.10;71.60;;;;;;4809212;29;20062;-82
2022/06/06 02:40:09;;;;;;;5.57;4.78;;;17.00;71.60;;;;;;4789530;29;20629;-83
2022/06/06 02:42:35;;;;;;;7.15;6.15;;;17.10;71.70;;;;;;4806532;29;20565;-83
2022/06/06 02:45:02;;;;;;;7.68;6.88;;;17.10;71.80;;;;;;4806800;29;20396;-82
2022/06/06 02:47:29;;;;;;;9.73;8.57;;;17.00;71.80;;;;;;4808366;29;20058;-83
2022/06/06 02:49:55;;;;;;;12.45;10.32;;;17.00;71.80;;;;;;4803191;29;20051;-82
2022/06/06 02:52:21;;;;;;;14.55;11.23;;;17.00;71.80;;;;;;4774921;30;20058;-84
2022/06/06 02:54:47;;;;;;;13.27;10.80;;;16.90;71.70;;;;;;4780577;29;20059;-82
2022/06/06 02:57:13;;;;;;;13.30;10.98;;;16.90;71.80;;;;;;4808359;29;20053;-82
2022/06/06 02:59:39;;;;;;;14.85;12.35;;;16.90;71.60;;;;;;4804011;29;20047;-82
2022/06/06 03:02:05;;;;;;;16.73;12.00;;;16.80;71.60;;;;;;4776403;29;20059;-82
2022/06/06 03:04:30;;;;;;;18.73;14.70;;;16.80;71.60;;;;;;4805010;29;20087;-83
2022/06/06 03:07:13;;;;;;;14.55;11.55;;;16.80;71.70;;;;;;4806447;29;20057;-84
2022/06/06 03:09:45;;;;;;;21.17;14.10;;;16.80;71.60;;;;;;4779084;29;20054;-80
2022/06/06 03:12:16;;;;;;;15.30;11.43;;;16.80;71.80;;;;;;4790258;29;20093;-84
2022/06/06 03:14:55;;;;;;;15.30;11.70;;;16.80;71.80;;;;;;4790299;29;20051;-82
2022/06/06 03:20:47;;;;;;;15.40;11.80;;;16.70;71.60;;;;;;4791262;29;20054;-82
2022/06/06 03:23:23;;;;;;;15.80;11.93;;;16.70;71.70;;;;;;4790045;29;20062;-82
2022/06/06 03:26:27;;;;;;;13.32;11.10;;;16.70;71.70;;;;;;4781669;29;20051;-82
2022/06/06 03:29:22;;;;;;;16.23;12.40;;;16.70;71.60;;;;;;4773519;30;20083;-84
2022/06/06 03:31:56;;;;;;;16.13;11.93;;;16.60;71.70;;;;;;4806033;29;20372;-80
2022/06/06 03:34:28;;;;;;;;;;;16.60;71.80;;;;;;4774768;30;20058;-85
2022/06/06 03:37:01;;;;;;;13.65;10.05;;;16.60;71.50;;;;;;4792209;29;19965;-84
2022/06/06 03:39:41;;;;;;;16.30;10.35;;;16.50;71.80;;;;;;4784626;29;20100;-84
2022/06/06 03:42:54;;;;;;;9.65;7.28;;;16.60;71.80;;;;;;4788662;29;20050;-84
2022/06/06 03:45:38;;;;;;;11.05;8.23;;;16.50;71.50;;;;;;4733871;30;20177;-83
2022/06/06 03:48:27;;;;;;;10.25;8.63;;;16.50;71.60;;;;;;4733287;30;20069;-82
2022/06/06 03:51:02;;;;;;;12.85;8.13;;;16.50;71.70;;;;;;4681482;30;20519;-85
2022/06/06 03:53:43;;;;;;;12.75;8.88;;;16.50;71.80;;;;;;4681424;30;20069;-82
2022/06/06 03:56:33;;;;;;;11.50;8.40;;;16.40;71.60;;;;;;4681632;30;20511;-84
2022/06/06 03:58:59;;;;;;;11.30;8.07;;;16.50;71.70;;;;;;4672982;30;20137;-82
2022/06/06 04:01:26;;;;;;;14.13;8.95;;;16.40;71.60;;;;;;4666653;30;20140;-83
2022/06/06 04:03:55;;;;;;;11.93;9.48;;;16.40;71.60;;;;;;4665622;30;20086;-82
2022/06/06 04:06:20;;;;;;;10.90;8.75;;;16.40;71.70;;;;;;4677171;30;20543;-83
2022/06/06 04:08:46;;;;;;;14.18;10.85;;;16.40;71.70;;;;;;4669984;30;20101;-81
2022/06/06 04:11:25;;;;;;;11.65;9.10;;;16.40;71.90;;;;;;4675166;30;20065;-82
2022/06/06 04:13:50;;;;;;;13.98;9.75;;;16.40;71.90;;;;;;4681232;30;20050;-81
2022/06/06 04:16:43;;;;;;;11.02;9.82;;;16.40;71.80;;;;;;4680663;30;20058;-82
2022/06/06 04:19:34;;;;;;;12.63;10.65;;;16.40;71.70;;;;;;4681645;30;20144;-83
2022/06/06 04:22:13;;;;;;;18.80;14.13;;;16.30;71.80;;;;;;4720360;30;20056;-81
2022/06/06 04:24:50;;;;;;;16.38;13.80;;;16.30;71.90;;;;;;4735076;30;20048;-83
2022/06/06 04:27:31;;;;;;;16.65;13.50;;;16.30;71.90;;;;;;4756437;29;20063;-82
2022/06/06 04:30:01;;;;;;;19.63;14.82;;;16.30;71.80;;;;;;4806208;29;20047;-82
2022/06/06 04:32:44;;;;;;;17.27;14.73;;;16.30;71.80;;;;;;4794187;29;20047;-83
2022/06/06 04:35:15;;;;;;;19.88;15.77;;;16.30;71.80;;;;;;4791955;29;20069;-83
2022/06/06 04:37:49;;;;;;;19.52;16.27;;;16.30;71.80;;;;;;4780535;29;20051;-81
2022/06/06 04:40:35;;;;;;;21.10;16.17;;;16.30;71.70;;;;;;4789907;29;20070;-84
2022/06/06 04:43:24;;;;;;;21.08;16.65;;;16.30;71.70;;;;;;4787077;29;20419;-80
2022/06/06 04:46:05;;;;;;;20.23;15.68;;;16.30;71.60;;;;;;4789536;29;20059;-80
2022/06/06 04:48:34;;;;;;;19.20;16.05;;;16.30;71.80;;;;;;4774392;30;20531;-83
2022/06/06 04:51:00;;;;;;;19.33;14.70;;;16.30;71.70;;;;;;4784581;29;20043;-82
2022/06/06 04:53:30;;;;;;;19.00;13.00;;;16.30;71.70;;;;;;4773772;30;20411;-82
2022/06/06 04:55:56;;;;;;;14.38;11.68;;;16.30;71.60;;;;;;4772265;30;20134;-82
2022/06/06 04:58:26;;;;;;;13.98;10.82;;;16.30;71.60;;;;;;4779614;30;20434;-82
2022/06/06 05:00:51;;;;;;;13.95;10.50;;;16.30;71.60;;;;;;4781077;29;20141;-80
2022/06/06 05:03:17;;;;;;;12.45;9.77;;;16.30;71.50;;;;;;4788468;29;20142;-82
2022/06/06 05:06:09;;;;;;;11.50;9.52;;;16.30;71.50;;;;;;4789382;29;20047;-82
2022/06/06 05:08:43;;;;;;;13.10;8.77;;;16.30;71.30;;;;;;4779859;30;20451;-83
2022/06/06 05:11:52;;;;;;;10.30;7.85;;;16.30;71.30;;;;;;4794290;29;20078;-82
2022/06/06 05:14:45;;;;;;;11.73;7.85;;;16.30;71.10;;;;;;4731372;30;20461;-83
2022/06/06 05:17:26;;;;;;;10.55;8.23;;;16.30;71.00;;;;;;4712615;30;20064;-82
2022/06/06 05:20:13;;;;;;;10.48;7.47;;;16.30;71.10;;;;;;4702935;30;20094;-83
2022/06/06 05:23:05;;;;;;;11.15;7.32;;;16.30;71.00;;;;;;4716546;30;20504;-83
2022/06/06 05:25:46;;;;;;;12.07;8.23;;;16.30;70.90;;;;;;4716684;30;20065;-83
2022/06/06 05:28:48;;;;;;;12.88;8.10;;;16.30;70.90;;;;;;4726079;30;20049;-82
2022/06/06 05:31:37;;;;;;;10.57;7.70;;;16.30;71.00;;;;;;4719794;30;20065;-82
2022/06/06 05:34:12;;;;;;;10.50;7.25;;;16.30;70.80;;;;;;4719391;30;20090;-80
2022/06/06 05:36:40;;;;;;;9.60;7.10;;;16.30;70.90;;;;;;4715203;30;20492;-82
2022/06/06 05:39:30;;;;;;;11.52;6.93;;;16.30;70.80;;;;;;4733229;30;20231;-81
2022/06/06 05:42:18;;;;;;;10.77;7.15;;;16.30;70.60;;;;;;4720060;30;20049;-81
2022/06/06 05:45:21;;;;;;;7.70;6.10;;;16.30;70.70;;;;;;4718982;30;20510;-80
2022/06/06 05:48:13;;;;;;;9.07;6.07;;;16.30;70.50;;;;;;4734865;30;20057;-81
2022/06/06 05:50:55;;;;;;;8.75;6.50;;;16.30;70.40;;;;;;4757286;30;20519;-82
2022/06/06 05:53:27;;;;;;;7.80;6.20;;;16.30;70.50;;;;;;4806821;29;20089;-81
2022/06/06 05:56:05;;;;;;;9.10;6.72;;;16.20;70.40;;;;;;4787595;29;20051;-82
2022/06/06 05:59:06;;;;;;;7.82;6.07;;;16.30;70.60;;;;;;4798099;29;20097;-82
2022/06/06 06:02:14;;;;;;;11.35;7.22;;;16.30;70.50;;;;;;4737248;30;20098;-81
2022/06/06 06:04:58;;;;;;;8.77;6.57;;;16.30;70.40;;;;;;4751681;30;20413;-81
2022/06/06 06:07:52;;;;;;;11.63;7.18;;;16.30;70.50;;;;;;4733644;30;20052;-81
2022/06/06 06:10:57;;;;;;;10.15;7.43;;;16.30;70.40;;;;;;4736015;30;20063;-80
2022/06/06 06:13:26;;;;;;;;;;;16.30;70.60;;;;;;4735201;30;20076;-80
2022/06/06 06:15:53;;;;;;;10.20;6.80;;;16.20;70.40;;;;;;4718405;30;20304;-81
2022/06/06 06:18:28;;;;;;;16.38;8.18;;;16.30;70.70;;;;;;4708379;30;20063;-81
2022/06/06 06:21:07;;;;;;;12.55;8.35;;;16.30;70.70;;;;;;4719578;30;20127;-80
2022/06/06 06:23:39;;;;;;;10.88;7.28;;;16.30;70.80;;;;;;4728006;30;20053;-82
2022/06/06 06:26:06;;;;;;;11.82;7.55;;;16.30;70.90;;;;;;4717489;30;20923;-80
2022/06/06 06:28:34;;;;;;;12.50;6.85;;;16.30;71.30;;;;;;4727053;30;20072;-82
2022/06/06 06:31:25;;;;;;;10.35;5.82;;;16.40;71.50;;;;;;4729021;30;20071;-81
2022/06/06 06:34:12;;;;;;;8.57;5.80;;;16.50;71.00;;;;;;4719585;30;20053;-82
2022/06/06 06:36:50;;;;;;;8.95;5.88;;;16.50;70.90;;;;;;4688837;30;20045;-80
2022/06/06 06:39:58;;;;;;;6.78;4.80;;;16.60;70.50;;;;;;4759372;30;20048;-79
2022/06/06 06:42:37;;;;;;;10.52;5.07;;;16.60;69.70;;;;;;4752624;30;20222;-79
2022/06/06 06:45:13;;;;;;;7.82;4.93;;;16.70;70.10;;;;;;4738238;30;20066;-79
2022/06/06 06:47:42;;;;;;;8.68;5.15;;;16.80;69.90;;;;;;4750239;30;20067;-79
2022/06/06 06:50:20;;;;;;;6.53;4.18;;;16.80;69.80;;;;;;4748214;30;20055;-80
2022/06/06 06:52:58;;;;;;;5.90;4.30;;;16.90;69.20;;;;;;4783449;30;20048;-81
2022/06/06 06:55:27;;;;;;;7.07;4.60;;;17.00;68.50;;;;;;4772543;30;20058;-81
2022/06/06 06:58:31;;;;;;;8.85;4.65;;;17.00;68.30;;;;;;4763728;30;20055;-81
2022/06/06 07:01:02;;;;;;;7.50;4.13;;;17.00;67.80;;;;;;4774323;30;20051;-79
2022/06/06 07:10:02;;;;;;;6.25;4.13;;;17.00;67.40;;;;;;4777369;30;20077;-82
2022/06/06 07:12:49;;;;;;;6.90;4.47;;;17.00;67.50;;;;;;4769874;30;20501;-81
2022/06/06 07:15:43;;;;;;;6.57;4.30;;;16.90;67.50;;;;;;4756316;30;20107;-83
2022/06/06 07:18:12;;;;;;;8.93;4.82;;;17.00;67.80;;;;;;4773418;30;20177;-81
2022/06/06 07:20:41;;;;;;;8.38;5.32;;;16.90;67.70;;;;;;4772340;30;20063;-81
2022/06/06 07:23:11;;;;;;;7.20;4.78;;;16.90;67.80;;;;;;4775316;30;20051;-82
2022/06/06 07:25:45;;;;;;;9.55;6.18;;;16.90;67.80;;;;;;4772235;30;20381;-82
2022/06/06 07:28:21;;;;;;;9.32;5.72;;;16.90;68.10;;;;;;4780369;30;20053;-82
2022/06/06 07:31:05;;;;;;;12.18;6.60;;;16.90;68.30;;;;;;4787046;30;20058;-81
2022/06/06 07:33:46;;;;;;;8.48;6.00;;;16.90;68.30;;;;;;4772682;30;20108;-82
2022/06/06 07:36:30;;;;;;;8.05;5.65;;;16.90;68.20;;;;;;4781920;30;20488;-81
2022/06/06 07:39:02;;;;;;;;;;;16.90;68.10;;;;;;4756743;30;20059;-80
2022/06/06 07:41:39;;;;;;;13.00;7.35;;;16.90;68.20;;;;;;4755628;30;19948;-83
2022/06/06 07:44:27;;;;;;;8.93;5.30;;;16.90;68.20;;;;;;4773021;30;20513;-81
2022/06/06 07:47:11;;;;;;;7.50;5.55;;;16.90;67.80;;;;;;4771509;29;20107;-82
2022/06/06 07:49:40;;;;;;;;;;;16.90;67.60;;;;;;4794978;29;20055;-82
2022/06/06 07:52:05;;;;;;;7.28;5.22;;;16.80;67.50;;;;;;4786262;29;19925;-81
2022/06/06 07:54:54;;;;;;;7.57;5.50;;;16.80;67.90;;;;;;4795032;29;20415;-80
2022/06/06 07:57:23;;;;;;;9.18;5.20;;;16.80;68.10;;;;;;4794096;29;20115;-81
2022/06/06 08:00:09;;;;;;;9.93;5.25;;;16.80;68.00;;;;;;4796006;29;20472;-81
2022/06/06 08:03:09;;;;;;;7.03;4.55;;;16.80;67.60;;;;;;4775905;29;20098;-81
2022/06/06 08:06:15;;;;;;;10.65;5.30;;;16.80;67.20;;;;;;4792994;29;20079;-82
2022/06/06 08:08:59;;;;;;;;;;;16.80;67.80;;;;;;4793548;29;20059;-83
2022/06/06 08:11:43;;;;;;;7.97;4.20;;;16.90;68.30;;;;;;4805262;29;19932;-80
2022/06/06 08:14:31;;;;;;;9.82;4.10;;;17.00;67.60;;;;;;4785662;29;20537;-83
2022/06/06 08:17:31;;;;;;;4.68;3.00;;;17.10;66.50;;;;;;4805199;29;20091;-81
2022/06/06 08:20:23;;;;;;;5.32;2.83;;;17.10;66.10;;;;;;4799687;29;20043;-81
2022/06/06 08:22:51;;;;;;;5.15;2.50;;;17.20;66.20;;;;;;4772581;29;20062;-83
2022/06/06 08:25:17;;;;;;;5.65;2.70;;;17.40;66.30;;;;;;4775695;30;20058;-83
2022/06/06 08:27:47;;;;;;;5.43;2.10;;;17.60;66.10;;;;;;4772378;30;20081;-83
2022/06/06 08:30:15;;;;;;;5.68;2.00;;;17.90;65.50;;;;;;4782008;30;20422;-82
2022/06/06 08:32:42;;;;;;;5.25;2.40;;;18.10;64.80;;;;;;4772675;30;20098;-84
2022/06/06 08:35:08;;;;;;;5.00;2.13;;;18.30;64.60;;;;;;4803746;29;20047;-82
2022/06/06 08:37:58;;;;;;;4.35;2.70;;;18.60;63.50;;;;;;4803890;29;20057;-83
2022/06/06 08:40:51;;;;;;;4.72;2.53;;;18.90;62.60;;;;;;4799808;29;20046;-83
2022/06/06 08:43:44;;;;;;;4.82;2.00;;;19.20;62.70;;;;;;4788571;29;20559;-83
2022/06/06 08:46:21;;;;;;;6.35;2.00;;;19.50;61.70;;;;;;4792194;29;20504;-84
2022/06/06 08:52:38;;;;;;;4.35;1.60;;;19.90;58.50;;;;;;4804912;29;20054;-83
2022/06/06 08:55:26;;;;;;;4.55;1.52;;;20.10;59.00;;;;;;4717646;30;20061;-83
2022/06/06 08:58:30;;;;;;;4.45;2.03;;;20.20;58.80;;;;;;4731541;30;20061;-82
2022/06/06 09:01:16;;;;;;;4.22;1.98;;;20.40;58.20;;;;;;4714994;30;20557;-82
2022/06/06 09:04:18;;;;;;;5.18;1.42;;;20.40;57.60;;;;;;4715254;30;20061;-81
2022/06/06 09:07:26;;;;;;;6.50;1.80;;;20.40;55.80;;;;;;4713637;30;20061;-82
2022/06/06 09:10:20;;;;;;;4.82;2.10;;;20.30;55.90;;;;;;4702515;30;20058;-81
2022/06/06 09:13:13;;;;;;;4.45;1.65;;;20.20;55.90;;;;;;4703116;30;20140;-81
2022/06/06 09:16:06;;;;;;;6.15;1.77;;;20.10;56.20;;;;;;4703587;30;20115;-82
2022/06/06 09:19:09;;;;;;;4.32;1.25;;;20.00;56.10;;;;;;4709419;30;20076;-82
2022/06/06 09:21:59;;;;;;;5.95;1.63;;;20.00;56.60;;;;;;4715014;30;20494;-81
2022/06/06 09:24:55;;;;;;;4.47;1.48;;;20.00;55.90;;;;;;4714213;30;20068;-82
2022/06/06 09:27:45;;;;;;;4.28;1.30;;;19.90;55.80;;;;;;4718559;30;20057;-81
2022/06/06 09:30:42;;;;;;;4.95;1.60;;;19.90;55.60;;;;;;4717716;30;20061;-83
2022/06/06 09:33:44;;;;;;;4.88;1.48;;;19.70;55.80;;;;;;4768887;30;20055;-82
2022/06/06 09:36:23;;;;;;;7.18;1.88;;;19.60;55.80;;;;;;4773600;29;20139;-82
2022/06/06 09:39:07;;;;;;;4.18;1.73;;;19.60;56.50;;;;;;4808815;29;20051;-81
2022/06/06 09:42:01;;;;;;;7.13;2.00;;;19.50;57.10;;;;;;4791992;29;20059;-81
2022/06/06 09:44:48;;;;;;;5.70;2.63;;;19.30;57.70;;;;;;4809175;29;20051;-81
2022/06/06 09:47:34;;;;;;;5.80;2.08;;;19.20;58.50;;;;;;4796994;29;20392;-80
2022/06/06 09:50:17;;;;;;;6.13;1.95;;;19.10;59.50;;;;;;4796050;29;20522;-80
2022/06/06 09:52:58;;;;;;;3.55;1.50;;;19.00;59.90;;;;;;4804147;29;20043;-79
2022/06/06 10:02:04;;;;;;;3.28;1.40;;;18.90;59.00;;;;;;4800521;29;20043;-78
2022/06/06 10:04:51;;;;;;;4.13;0.95;;;18.80;59.20;;;;;;4799816;29;20062;-81
2022/06/06 10:07:36;;;;;;;5.78;1.50;;;18.80;60.10;;;;;;4787749;29;20134;-81
2022/06/06 10:10:19;;;;;;;4.78;2.22;;;18.90;60.60;;;;;;4789299;29;20083;-80
2022/06/06 10:12:54;;;;;;;4.97;2.13;;;19.00;60.80;;;;;;4797768;29;20063;-80
2022/06/06 10:15:28;;;;;;;5.63;1.83;;;19.00;61.40;;;;;;4769812;29;20043;-80
2022/06/06 10:18:00;;;;;;;5.57;1.58;;;19.10;61.50;;;;;;4801432;29;20046;-80
2022/06/06 10:20:32;;;;;;;12.52;7.65;;;19.30;61.30;;;;;;4789899;29;20065;-80
2022/06/06 10:22:57;;;;;;;24.95;16.50;;;19.30;59.80;;;;;;4784803;29;20061;-82
2022/06/06 10:25:56;;;;;;;21.25;15.85;;;19.30;59.20;;;;;;4782683;29;20059;-81
2022/06/06 10:28:28;;;;;;;9.48;5.90;;;19.30;59.50;;;;;;4795547;29;20081;-83
2022/06/06 10:31:20;;;;;;;5.18;2.40;;;19.30;59.50;;;;;;4793153;29;20113;-80
2022/06/06 10:34:16;;;;;;;8.23;4.72;;;19.40;59.20;;;;;;4780795;29;20537;-80
2022/06/06 10:37:29;;;;;;;46.83;40.80;;;19.40;59.10;;;;;;4797371;29;20047;-81
2022/06/06 10:40:22;;;;;;;154.55;116.88;;;19.30;59.90;;;;;;4745626;30;20093;-80
2022/06/06 10:43:00;;;;;;;100.97;77.70;;;19.30;59.90;;;;;;4738239;30;20144;-80
2022/06/06 10:45:46;;;;;;;75.82;59.47;;;19.20;60.70;;;;;;4728866;30;20151;-81
2022/06/06 10:48:15;;;;;;;47.60;40.72;;;19.20;61.70;;;;;;4731904;30;20071;-81
2022/06/06 10:54:07;;;;;;;20.00;13.10;;;19.30;62.70;;;;;;4737139;30;20478;-81
2022/06/06 10:57:02;;;;;;;85.90;56.75;;;19.40;62.20;;;;;;4724320;30;20217;-82
2022/06/06 11:00:03;;;;;;;37.25;27.85;;;19.50;61.30;;;;;;4740239;30;20052;-81
2022/06/06 11:02:41;;;;;;;12.57;10.25;;;19.60;60.90;;;;;;4735471;30;20075;-81
2022/06/06 11:05:11;;;;;;;11.93;8.07;;;19.60;59.60;;;;;;4741858;30;20057;-82
2022/06/06 11:08:00;;;;;;;28.80;19.63;;;19.60;58.60;;;;;;4736619;30;20213;-81
2022/06/06 11:10:38;;;;;;;28.25;23.13;;;19.50;58.30;;;;;;4753635;30;20142;-81
2022/06/06 11:13:22;;;;;;;16.15;12.93;;;19.40;58.50;;;;;;4772188;30;20043;-81
2022/06/06 11:16:06;;;;;;;8.93;5.10;;;19.30;59.00;;;;;;4773917;29;20059;-79
2022/06/06 11:18:42;;;;;;;11.43;6.15;;;19.20;59.40;;;;;;4785071;29;20062;-79
2022/06/06 11:21:37;;;;;;;6.28;3.70;;;19.10;59.50;;;;;;4768772;30;20059;-79
2022/06/06 11:24:23;;;;;;;7.60;6.13;;;19.10;59.60;;;;;;4778863;29;20134;-79
2022/06/06 11:27:10;;;;;;;5.88;2.55;;;19.10;60.70;;;;;;4792239;29;20051;-81
2022/06/06 11:30:06;;;;;;;4.40;1.90;;;19.20;60.10;;;;;;4772233;30;20051;-79
2022/06/06 11:33:09;;;;;;;4.97;1.77;;;19.30;59.20;;;;;;4772793;30;20396;-79
2022/06/06 11:36:03;;;;;;;4.25;1.70;;;19.30;59.70;;;;;;4772687;30;20496;-80
2022/06/06 11:38:48;;;;;;;3.15;1.10;;;19.50;58.80;;;;;;4792115;29;20067;-81
2022/06/06 11:41:38;;;;;;;5.43;1.65;;;19.60;57.80;;;;;;4789953;29;20043;-80
2022/06/06 11:44:32;;;;;;;5.30;1.05;;;19.80;57.40;;;;;;4797450;29;20068;-79
2022/06/06 11:46:58;;;;;;;;;;;19.90;56.40;;;;;;4792838;29;20604;-79
2022/06/06 11:50:02;;;;;;;4.35;1.27;;;19.90;56.40;;;;;;4803604;29;19937;-79
2022/06/06 11:53:00;;;;;;;5.25;1.88;;;19.90;56.20;;;;;;4742725;30;20055;-77
2022/06/06 11:55:28;;;;;;;3.70;1.20;;;20.00;56.10;;;;;;4752865;30;20052;-80
2022/06/06 11:58:22;;;;;;;5.15;1.92;;;20.10;56.00;;;;;;4736434;30;20060;-79
2022/06/06 12:01:29;;;;;;;4.60;0.90;;;20.10;56.00;;;;;;4736395;30;20048;-78
2022/06/06 12:04:30;;;;;;;2.80;1.60;;;20.20;54.60;;;;;;4754692;30;20059;-79
2022/06/06 12:07:31;;;;;;;5.15;2.85;;;20.20;55.20;;;;;;4738480;30;20589;-77
2022/06/06 12:10:10;;;;;;;4.28;1.50;;;20.30;55.70;;;;;;4701459;30;20060;-79
2022/06/06 12:13:18;;;;;;;4.45;1.00;;;20.40;55.50;;;;;;4730219;30;20044;-79
2022/06/06 12:15:50;;;;;;;4.32;0.95;;;20.50;54.50;;;;;;4683575;30;20057;-78
2022/06/06 12:18:43;;;;;;;4.55;2.28;;;20.40;53.70;;;;;;4693844;30;20439;-79
2022/06/06 12:21:37;;;;;;;4.47;1.83;;;20.50;53.40;;;;;;4678146;30;20152;-79
2022/06/06 12:24:21;;;;;;;3.15;1.23;;;20.50;53.60;;;;;;4691786;30;20058;-77
2022/06/06 12:27:09;;;;;;;;;;;20.50;53.10;;;;;;4700216;30;20475;-78
2022/06/06 12:29:40;;;;;;;4.20;1.73;;;20.40;53.80;;;;;;4728119;30;20453;-78
2022/06/06 12:32:34;;;;;;;3.72;1.80;;;20.30;54.20;;;;;;4717612;30;20091;-78
2022/06/06 12:35:16;;;;;;;6.03;1.80;;;20.30;54.70;;;;;;4711628;30;20141;-78
2022/06/06 12:37:59;;;;;;;4.50;2.03;;;20.20;55.00;;;;;;4731712;30;20063;-78
2022/06/06 12:40:54;;;;;;;5.43;1.90;;;20.20;54.80;;;;;;4738852;30;20053;-80
2022/06/06 12:43:38;;;;;;;2.88;1.90;;;20.10;54.80;;;;;;4737303;30;20052;-77
2022/06/06 12:46:12;;;;;;;4.30;2.30;;;20.10;55.40;;;;;;4722523;30;20064;-78
2022/06/06 12:48:44;;;;;;;5.00;2.58;;;20.00;55.90;;;;;;4762408;30;20330;-78
2022/06/06 12:51:17;;;;;;;10.07;4.22;;;19.90;56.00;;;;;;4751658;29;20056;-78
2022/06/06 12:54:07;;;;;;;5.38;2.90;;;19.90;56.20;;;;;;4806322;29;20042;-79
2022/06/06 12:56:55;;;;;;;5.75;3.10;;;19.80;56.40;;;;;;4796993;29;20046;-78
2022/06/06 12:59:24;;;;;;;6.30;2.20;;;19.70;56.50;;;;;;4806500;29;20051;-79
2022/06/06 13:02:08;;;;;;;3.97;1.65;;;19.60;56.60;;;;;;4781839;29;20134;-78
2022/06/06 13:05:02;;;;;;;6.60;2.15;;;19.60;56.40;;;;;;4773248;29;20071;-79
2022/06/06 13:07:50;;;;;;;2.83;1.80;;;19.50;56.90;;;;;;4789711;29;20073;-77
2022/06/06 13:10:33;;;;;;;3.22;1.90;;;19.40;57.60;;;;;;4798716;29;20562;-79
2022/06/06 13:13:10;;;;;;;3.42;2.20;;;19.30;57.90;;;;;;4799232;29;20053;-80
2022/06/06 13:15:53;;;;;;;3.22;2.13;;;19.20;57.90;;;;;;4787775;29;20135;-77
2022/06/06 13:18:37;;;;;;;2.47;1.48;;;19.10;58.10;;;;;;4785786;29;20053;-79
2022/06/06 13:21:49;;;;;;;2.78;1.90;;;19.00;58.40;;;;;;4799167;29;20556;-80
2022/06/06 13:24:52;;;;;;;3.47;1.80;;;18.90;59.00;;;;;;4745552;30;20083;-81
2022/06/06 13:27:29;;;;;;;4.18;2.10;;;18.90;59.60;;;;;;4734872;30;20055;-82
2022/06/06 13:29:55;;;;;;;5.65;2.45;;;18.80;60.30;;;;;;4734897;30;20141;-82
2022/06/06 13:32:41;;;;;;;3.60;2.50;;;18.70;60.80;;;;;;4749307;30;20070;-82
2022/06/06 13:35:19;;;;;;;4.88;3.10;;;18.60;61.50;;;;;;4714777;30;20503;-85
2022/06/06 13:38:15;;;;;;;6.78;3.25;;;18.50;62.40;;;;;;4700119;30;20255;-85
2022/06/06 13:40:42;;;;;;;4.75;2.95;;;18.40;63.10;;;;;;4714217;30;20073;-86
2022/06/06 13:43:21;;;;;;;4.90;3.25;;;18.20;63.30;;;;;;4714804;30;20414;-87
2022/06/06 13:46:09;;;;;;;4.65;3.33;;;18.20;64.00;;;;;;4715367;30;20546;-87
2022/06/06 13:48:54;;;;;;;4.53;3.30;;;18.10;64.30;;;;;;4708664;30;20151;-85
2022/06/06 13:51:22;;;;;;;;;;;18.10;64.80;;;;;;4715152;30;20163;-89
2022/06/06 13:54:30;;;;;;;5.25;2.50;;;18.00;64.70;;;;;;4716521;30;19938;-86
2022/06/06 13:57:18;;;;;;;4.20;2.38;;;18.00;65.00;;;;;;4718586;30;20056;-85
2022/06/06 14:00:11;;;;;;;5.25;2.00;;;17.90;65.10;;;;;;4757897;30;20075;-83
2022/06/06 14:03:02;;;;;;;5.00;2.40;;;17.80;65.20;;;;;;4749575;30;20063;-85
2022/06/06 14:06:05;;;;;;;3.13;2.10;;;17.70;65.70;;;;;;4757893;30;20056;-85
2022/06/06 14:08:50;;;;;;;2.67;1.95;;;17.70;66.10;;;;;;4743964;30;20420;-84
2022/06/06 14:11:33;;;;;;;2.65;2.00;;;17.50;66.10;;;;;;4756311;30;20052;-86
2022/06/06 14:14:01;;;;;;;3.42;2.30;;;17.50;66.80;;;;;;4778960;29;20059;-86
2022/06/06 14:16:41;;;;;;;4.40;2.33;;;17.50;66.60;;;;;;4774289;29;20078;-83
2022/06/06 14:19:12;;;;;;;5.97;2.47;;;17.40;67.00;;;;;;4773496;29;20058;-87